Burjassot, Spain
Current Conditions -  °F | °C
As of 6:30 AM on Wednesday 22 Oct 2014 (Local Time) from LEVC Reporting Station
Clear Clear  
Wind Chill: 72°   Ceiling: Unl
Heat Index: 72°   Visibility: 6mi
Dew Point: 52°   Wind: 13mph
Humidity: 50%   Direction: 310°NW
Pressure: 30.15"   Gusts: NA
Location:  39.52°N, 0.42°W
Report Text: LEVC 220430Z 31011KT CAVOK 22/11 Q1021 NOSIG
Loading
Personal Weather Stations






























Interactive Weather Map
Tropical Storm Tracking
New forecast layout! Learn more

10-Day Weather Forecast

Advertisements
Track Severe Weather on mobile